sensor_id;sensor_type;location;lat;lon;timestamp;P1;durP1;ratioP1;P2;durP2;ratioP2
53521;SDS011;39398;48.382;9.802;2023-03-04T00:02:16;62.60;;;21.95;;
53521;SDS011;39398;48.382;9.802;2023-03-04T00:07:18;56.83;;;25.80;;
53521;SDS011;39398;48.382;9.802;2023-03-04T00:12:21;64.55;;;29.58;;
53521;SDS011;39398;48.382;9.802;2023-03-04T00:17:22;62.67;;;27.27;;
53521;SDS011;39398;48.382;9.802;2023-03-04T00:22:24;62.95;;;26.42;;
53521;SDS011;39398;48.382;9.802;2023-03-04T00:27:26;44.75;;;19.40;;
53521;SDS011;39398;48.382;9.802;2023-03-04T00:32:28;57.95;;;24.98;;
53521;SDS011;39398;48.382;9.802;2023-03-04T00:37:30;68.57;;;28.23;;
53521;SDS011;39398;48.382;9.802;2023-03-04T00:42:33;64.32;;;26.10;;
53521;SDS011;39398;48.382;9.802;2023-03-04T00:47:34;66.68;;;24.42;;
53521;SDS011;39398;48.382;9.802;2023-03-04T00:52:36;70.95;;;26.95;;
53521;SDS011;39398;48.382;9.802;2023-03-04T00:57:39;65.07;;;26.92;;
53521;SDS011;39398;48.382;9.802;2023-03-04T01:02:40;64.50;;;29.83;;
53521;SDS011;39398;48.382;9.802;2023-03-04T01:07:42;68.75;;;32.08;;
53521;SDS011;39398;48.382;9.802;2023-03-04T01:12:45;67.75;;;33.25;;
53521;SDS011;39398;48.382;9.802;2023-03-04T01:17:46;66.63;;;33.80;;
53521;SDS011;39398;48.382;9.802;2023-03-04T01:22:48;71.10;;;34.70;;
53521;SDS011;39398;48.382;9.802;2023-03-04T01:27:51;70.00;;;36.95;;
53521;SDS011;39398;48.382;9.802;2023-03-04T01:32:52;74.38;;;36.47;;
53521;SDS011;39398;48.382;9.802;2023-03-04T01:37:54;75.30;;;38.15;;
53521;SDS011;39398;48.382;9.802;2023-03-04T01:42:56;73.85;;;37.25;;
53521;SDS011;39398;48.382;9.802;2023-03-04T01:47:58;66.65;;;34.97;;
53521;SDS011;39398;48.382;9.802;2023-03-04T01:53:00;71.85;;;35.85;;
53521;SDS011;39398;48.382;9.802;2023-03-04T01:58:08;77.65;;;37.58;;
53521;SDS011;39398;48.382;9.802;2023-03-04T02:03:10;67.63;;;35.00;;
53521;SDS011;39398;48.382;9.802;2023-03-04T02:08:14;66.03;;;34.35;;
53521;SDS011;39398;48.382;9.802;2023-03-04T02:13:19;68.90;;;33.33;;
53521;SDS011;39398;48.382;9.802;2023-03-04T02:18:22;69.53;;;35.95;;
53521;SDS011;39398;48.382;9.802;2023-03-04T02:23:25;69.90;;;33.30;;
53521;SDS011;39398;48.382;9.802;2023-03-04T02:28:34;70.15;;;34.63;;
53521;SDS011;39398;48.382;9.802;2023-03-04T02:33:36;64.68;;;33.72;;
53521;SDS011;39398;48.382;9.802;2023-03-04T02:38:37;68.95;;;36.05;;
53521;SDS011;39398;48.382;9.802;2023-03-04T02:43:40;68.53;;;35.10;;
53521;SDS011;39398;48.382;9.802;2023-03-04T02:48:42;71.75;;;38.08;;
53521;SDS011;39398;48.382;9.802;2023-03-04T02:53:43;73.20;;;36.38;;
53521;SDS011;39398;48.382;9.802;2023-03-04T02:58:46;71.25;;;32.55;;
53521;SDS011;39398;48.382;9.802;2023-03-04T03:03:48;71.07;;;37.40;;
53521;SDS011;39398;48.382;9.802;2023-03-04T03:08:49;77.90;;;36.03;;
53521;SDS011;39398;48.382;9.802;2023-03-04T03:13:52;76.75;;;37.58;;
53521;SDS011;39398;48.382;9.802;2023-03-04T03:18:53;83.40;;;39.60;;
53521;SDS011;39398;48.382;9.802;2023-03-04T03:23:55;90.15;;;42.47;;
53521;SDS011;39398;48.382;9.802;2023-03-04T03:28:58;90.72;;;42.40;;
53521;SDS011;39398;48.382;9.802;2023-03-04T03:33:59;91.78;;;43.55;;
53521;SDS011;39398;48.382;9.802;2023-03-04T03:39:01;98.93;;;45.47;;
53521;SDS011;39398;48.382;9.802;2023-03-04T03:44:04;100.65;;;46.22;;
53521;SDS011;39398;48.382;9.802;2023-03-04T03:49:05;97.55;;;45.92;;
53521;SDS011;39398;48.382;9.802;2023-03-04T03:54:07;99.55;;;44.55;;
53521;SDS011;39398;48.382;9.802;2023-03-04T03:59:10;94.18;;;43.88;;
53521;SDS011;39398;48.382;9.802;2023-03-04T04:04:11;103.45;;;44.80;;
53521;SDS011;39398;48.382;9.802;2023-03-04T04:09:13;101.20;;;44.22;;
53521;SDS011;39398;48.382;9.802;2023-03-04T04:14:16;106.57;;;47.75;;
53521;SDS011;39398;48.382;9.802;2023-03-04T04:19:17;101.68;;;46.58;;
53521;SDS011;39398;48.382;9.802;2023-03-04T04:24:20;111.80;;;46.40;;
53521;SDS011;39398;48.382;9.802;2023-03-04T04:29:23;111.97;;;48.30;;
53521;SDS011;39398;48.382;9.802;2023-03-04T04:34:24;93.60;;;42.75;;
53521;SDS011;39398;48.382;9.802;2023-03-04T04:39:26;107.35;;;44.65;;
53521;SDS011;39398;48.382;9.802;2023-03-04T04:44:29;104.80;;;43.53;;
53521;SDS011;39398;48.382;9.802;2023-03-04T04:49:31;109.03;;;44.65;;
53521;SDS011;39398;48.382;9.802;2023-03-04T04:54:32;106.97;;;45.42;;
53521;SDS011;39398;48.382;9.802;2023-03-04T04:59:35;113.50;;;45.38;;
53521;SDS011;39398;48.382;9.802;2023-03-04T05:04:37;111.40;;;46.75;;
53521;SDS011;39398;48.382;9.802;2023-03-04T05:09:38;103.47;;;43.15;;
53521;SDS011;39398;48.382;9.802;2023-03-04T05:14:41;102.28;;;43.08;;
53521;SDS011;39398;48.382;9.802;2023-03-04T05:19:42;94.35;;;42.70;;
53521;SDS011;39398;48.382;9.802;2023-03-04T05:24:44;100.80;;;41.17;;
53521;SDS011;39398;48.382;9.802;2023-03-04T05:29:47;98.68;;;42.00;;
53521;SDS011;39398;48.382;9.802;2023-03-04T05:34:48;91.68;;;38.15;;
53521;SDS011;39398;48.382;9.802;2023-03-04T05:39:50;89.72;;;37.55;;
53521;SDS011;39398;48.382;9.802;2023-03-04T05:44:53;92.03;;;40.25;;
53521;SDS011;39398;48.382;9.802;2023-03-04T05:49:54;103.22;;;41.40;;
53521;SDS011;39398;48.382;9.802;2023-03-04T05:54:56;93.72;;;40.45;;
53521;SDS011;39398;48.382;9.802;2023-03-04T05:59:58;98.28;;;40.15;;
53521;SDS011;39398;48.382;9.802;2023-03-04T06:05:00;91.28;;;38.22;;
53521;SDS011;39398;48.382;9.802;2023-03-04T06:10:02;93.78;;;39.30;;
53521;SDS011;39398;48.382;9.802;2023-03-04T06:15:06;90.30;;;38.33;;
53521;SDS011;39398;48.382;9.802;2023-03-04T06:20:09;84.68;;;36.25;;
53521;SDS011;39398;48.382;9.802;2023-03-04T06:25:12;95.40;;;38.58;;
53521;SDS011;39398;48.382;9.802;2023-03-04T06:35:17;90.55;;;38.55;;
53521;SDS011;39398;48.382;9.802;2023-03-04T06:40:19;97.82;;;40.72;;
53521;SDS011;39398;48.382;9.802;2023-03-04T06:45:22;87.93;;;38.85;;
53521;SDS011;39398;48.382;9.802;2023-03-04T06:50:23;85.40;;;38.03;;
53521;SDS011;39398;48.382;9.802;2023-03-04T06:55:25;77.57;;;35.35;;
53521;SDS011;39398;48.382;9.802;2023-03-04T07:00:28;65.65;;;28.52;;
53521;SDS011;39398;48.382;9.802;2023-03-04T07:05:30;83.28;;;35.13;;
53521;SDS011;39398;48.382;9.802;2023-03-04T07:10:31;79.18;;;32.83;;
53521;SDS011;39398;48.382;9.802;2023-03-04T07:15:34;77.60;;;37.50;;
53521;SDS011;39398;48.382;9.802;2023-03-04T07:20:37;83.03;;;37.28;;
53521;SDS011;39398;48.382;9.802;2023-03-04T07:25:39;73.35;;;35.65;;
53521;SDS011;39398;48.382;9.802;2023-03-04T07:30:42;72.43;;;33.60;;
53521;SDS011;39398;48.382;9.802;2023-03-04T07:35:43;56.55;;;27.63;;
53521;SDS011;39398;48.382;9.802;2023-03-04T07:40:45;44.40;;;21.35;;
53521;SDS011;39398;48.382;9.802;2023-03-04T07:46:00;35.97;;;18.70;;
53521;SDS011;39398;48.382;9.802;2023-03-04T07:51:03;39.07;;;20.37;;
53521;SDS011;39398;48.382;9.802;2023-03-04T07:56:10;40.75;;;19.00;;
53521;SDS011;39398;48.382;9.802;2023-03-04T08:01:15;35.25;;;18.30;;
53521;SDS011;39398;48.382;9.802;2023-03-04T08:06:19;35.50;;;15.38;;
53521;SDS011;39398;48.382;9.802;2023-03-04T08:11:22;39.17;;;16.65;;
53521;SDS011;39398;48.382;9.802;2023-03-04T08:16:25;37.90;;;18.23;;
53521;SDS011;39398;48.382;9.802;2023-03-04T08:21:26;39.92;;;20.35;;
53521;SDS011;39398;48.382;9.802;2023-03-04T08:26:29;33.42;;;16.75;;
53521;SDS011;39398;48.382;9.802;2023-03-04T08:31:34;34.10;;;17.40;;
53521;SDS011;39398;48.382;9.802;2023-03-04T08:36:36;36.60;;;15.43;;
53521;SDS011;39398;48.382;9.802;2023-03-04T08:41:37;40.28;;;16.50;;
53521;SDS011;39398;48.382;9.802;2023-03-04T08:46:41;31.55;;;11.13;;
53521;SDS011;39398;48.382;9.802;2023-03-04T08:51:43;33.05;;;13.52;;
53521;SDS011;39398;48.382;9.802;2023-03-04T08:56:44;40.47;;;17.30;;
53521;SDS011;39398;48.382;9.802;2023-03-04T09:01:47;43.45;;;20.83;;
53521;SDS011;39398;48.382;9.802;2023-03-04T09:06:49;40.10;;;17.70;;
53521;SDS011;39398;48.382;9.802;2023-03-04T09:11:53;37.58;;;18.13;;
53521;SDS011;39398;48.382;9.802;2023-03-04T09:16:57;36.72;;;14.93;;
53521;SDS011;39398;48.382;9.802;2023-03-04T09:21:59;44.13;;;19.38;;
53521;SDS011;39398;48.382;9.802;2023-03-04T09:27:00;31.08;;;12.43;;
53521;SDS011;39398;48.382;9.802;2023-03-04T09:32:04;36.53;;;18.05;;
53521;SDS011;39398;48.382;9.802;2023-03-04T09:37:05;34.90;;;14.32;;
53521;SDS011;39398;48.382;9.802;2023-03-04T09:42:08;35.65;;;12.02;;
53521;SDS011;39398;48.382;9.802;2023-03-04T09:52:22;31.45;;;17.02;;
53521;SDS011;39398;48.382;9.802;2023-03-04T09:57:40;36.83;;;16.15;;
53521;SDS011;39398;48.382;9.802;2023-03-04T10:02:52;35.53;;;15.40;;
53521;SDS011;39398;48.382;9.802;2023-03-04T10:08:20;28.30;;;11.90;;
53521;SDS011;39398;48.382;9.802;2023-03-04T10:13:33;38.72;;;18.35;;
53521;SDS011;39398;48.382;9.802;2023-03-04T10:18:41;48.03;;;26.65;;
53521;SDS011;39398;48.382;9.802;2023-03-04T10:23:49;25.40;;;11.80;;
53521;SDS011;39398;48.382;9.802;2023-03-04T10:28:50;32.25;;;14.52;;
53521;SDS011;39398;48.382;9.802;2023-03-04T10:33:53;33.30;;;16.77;;
53521;SDS011;39398;48.382;9.802;2023-03-04T10:38:56;50.78;;;25.83;;
53521;SDS011;39398;48.382;9.802;2023-03-04T10:43:59;29.35;;;16.35;;
53521;SDS011;39398;48.382;9.802;2023-03-04T10:49:04;25.40;;;12.88;;
53521;SDS011;39398;48.382;9.802;2023-03-04T10:54:06;34.78;;;16.52;;
53521;SDS011;39398;48.382;9.802;2023-03-04T10:59:29;43.63;;;21.90;;
53521;SDS011;39398;48.382;9.802;2023-03-04T11:04:35;35.35;;;14.77;;
53521;SDS011;39398;48.382;9.802;2023-03-04T11:09:36;38.00;;;17.40;;
53521;SDS011;39398;48.382;9.802;2023-03-04T11:14:39;45.38;;;21.65;;
53521;SDS011;39398;48.382;9.802;2023-03-04T11:19:44;60.97;;;34.13;;
53521;SDS011;39398;48.382;9.802;2023-03-04T11:24:54;53.17;;;28.65;;
53521;SDS011;39398;48.382;9.802;2023-03-04T11:29:59;46.33;;;23.30;;
53521;SDS011;39398;48.382;9.802;2023-03-04T11:35:14;49.03;;;22.33;;
53521;SDS011;39398;48.382;9.802;2023-03-04T11:40:24;46.17;;;19.25;;
53521;SDS011;39398;48.382;9.802;2023-03-04T11:45:40;42.13;;;18.83;;
53521;SDS011;39398;48.382;9.802;2023-03-04T11:50:55;32.17;;;15.43;;
53521;SDS011;39398;48.382;9.802;2023-03-04T11:56:09;37.05;;;17.77;;
53521;SDS011;39398;48.382;9.802;2023-03-04T12:01:21;34.58;;;16.45;;
53521;SDS011;39398;48.382;9.802;2023-03-04T12:06:33;36.05;;;16.33;;
53521;SDS011;39398;48.382;9.802;2023-03-04T12:11:45;29.23;;;14.63;;
53521;SDS011;39398;48.382;9.802;2023-03-04T12:17:08;27.55;;;13.75;;
53521;SDS011;39398;48.382;9.802;2023-03-04T12:22:30;34.15;;;17.20;;
53521;SDS011;39398;48.382;9.802;2023-03-04T12:27:41;31.92;;;15.43;;
53521;SDS011;39398;48.382;9.802;2023-03-04T12:32:50;31.88;;;14.73;;
53521;SDS011;39398;48.382;9.802;2023-03-04T12:38:03;27.67;;;12.82;;
53521;SDS011;39398;48.382;9.802;2023-03-04T12:48:36;32.67;;;16.10;;
53521;SDS011;39398;48.382;9.802;2023-03-04T12:53:45;34.58;;;19.52;;
53521;SDS011;39398;48.382;9.802;2023-03-04T12:58:58;37.15;;;16.52;;
53521;SDS011;39398;48.382;9.802;2023-03-04T13:04:01;37.53;;;19.10;;
53521;SDS011;39398;48.382;9.802;2023-03-04T13:09:13;24.27;;;12.85;;
53521;SDS011;39398;48.382;9.802;2023-03-04T13:14:26;37.40;;;19.60;;
53521;SDS011;39398;48.382;9.802;2023-03-04T13:19:49;33.08;;;16.05;;
53521;SDS011;39398;48.382;9.802;2023-03-04T13:24:58;35.80;;;19.02;;
53521;SDS011;39398;48.382;9.802;2023-03-04T13:30:07;31.57;;;16.50;;
53521;SDS011;39398;48.382;9.802;2023-03-04T13:36:01;33.65;;;17.15;;
53521;SDS011;39398;48.382;9.802;2023-03-04T13:41:10;31.02;;;14.65;;
53521;SDS011;39398;48.382;9.802;2023-03-04T13:46:30;35.50;;;18.92;;
53521;SDS011;39398;48.382;9.802;2023-03-04T13:51:42;36.88;;;17.42;;
53521;SDS011;39398;48.382;9.802;2023-03-04T13:56:46;32.63;;;16.42;;
53521;SDS011;39398;48.382;9.802;2023-03-04T14:01:51;36.92;;;19.27;;
53521;SDS011;39398;48.382;9.802;2023-03-04T14:06:57;39.95;;;20.25;;
53521;SDS011;39398;48.382;9.802;2023-03-04T14:12:03;39.80;;;18.52;;
53521;SDS011;39398;48.382;9.802;2023-03-04T14:17:14;35.85;;;18.00;;
53521;SDS011;39398;48.382;9.802;2023-03-04T14:22:20;45.13;;;18.90;;
53521;SDS011;39398;48.382;9.802;2023-03-04T14:27:25;44.22;;;23.30;;
53521;SDS011;39398;48.382;9.802;2023-03-04T14:32:27;35.60;;;15.10;;
53521;SDS011;39398;48.382;9.802;2023-03-04T14:37:32;44.10;;;21.08;;
53521;SDS011;39398;48.382;9.802;2023-03-04T14:42:43;39.70;;;20.00;;
53521;SDS011;39398;48.382;9.802;2023-03-04T14:47:47;48.80;;;22.13;;
53521;SDS011;39398;48.382;9.802;2023-03-04T14:52:49;55.83;;;30.02;;
53521;SDS011;39398;48.382;9.802;2023-03-04T14:58:07;66.93;;;36.67;;
53521;SDS011;39398;48.382;9.802;2023-03-04T15:03:18;68.13;;;34.67;;
53521;SDS011;39398;48.382;9.802;2023-03-04T15:08:23;56.38;;;30.63;;
53521;SDS011;39398;48.382;9.802;2023-03-04T15:13:39;57.05;;;25.75;;
53521;SDS011;39398;48.382;9.802;2023-03-04T15:18:52;57.25;;;28.02;;
53521;SDS011;39398;48.382;9.802;2023-03-04T15:23:54;57.95;;;28.52;;
53521;SDS011;39398;48.382;9.802;2023-03-04T15:28:57;50.75;;;25.52;;
53521;SDS011;39398;48.382;9.802;2023-03-04T15:33:59;54.33;;;26.15;;
53521;SDS011;39398;48.382;9.802;2023-03-04T15:39:01;53.33;;;24.95;;
53521;SDS011;39398;48.382;9.802;2023-03-04T15:44:04;65.22;;;32.90;;
53521;SDS011;39398;48.382;9.802;2023-03-04T15:49:05;70.57;;;35.03;;
53521;SDS011;39398;48.382;9.802;2023-03-04T15:54:08;71.60;;;35.22;;
53521;SDS011;39398;48.382;9.802;2023-03-04T15:59:14;70.70;;;28.77;;
53521;SDS011;39398;48.382;9.802;2023-03-04T16:04:17;70.50;;;26.98;;
53521;SDS011;39398;48.382;9.802;2023-03-04T16:09:18;87.63;;;47.05;;
53521;SDS011;39398;48.382;9.802;2023-03-04T16:14:21;93.68;;;50.05;;
53521;SDS011;39398;48.382;9.802;2023-03-04T16:19:23;87.68;;;43.63;;
53521;SDS011;39398;48.382;9.802;2023-03-04T16:24:31;84.47;;;35.53;;
53521;SDS011;39398;48.382;9.802;2023-03-04T16:29:35;78.03;;;32.05;;
53521;SDS011;39398;48.382;9.802;2023-03-04T16:34:37;80.78;;;33.83;;
53521;SDS011;39398;48.382;9.802;2023-03-04T16:39:39;76.70;;;34.55;;
53521;SDS011;39398;48.382;9.802;2023-03-04T16:44:43;77.10;;;31.90;;
53521;SDS011;39398;48.382;9.802;2023-03-04T16:49:47;76.25;;;32.15;;
53521;SDS011;39398;48.382;9.802;2023-03-04T16:54:49;70.35;;;27.73;;
53521;SDS011;39398;48.382;9.802;2023-03-04T16:59:52;66.40;;;26.50;;
53521;SDS011;39398;48.382;9.802;2023-03-04T17:04:54;71.75;;;29.65;;
53521;SDS011;39398;48.382;9.802;2023-03-04T17:09:56;58.05;;;25.13;;
53521;SDS011;39398;48.382;9.802;2023-03-04T17:14:58;62.95;;;24.05;;
53521;SDS011;39398;48.382;9.802;2023-03-04T17:20:00;59.90;;;26.77;;
53521;SDS011;39398;48.382;9.802;2023-03-04T17:25:02;65.82;;;27.38;;
53521;SDS011;39398;48.382;9.802;2023-03-04T17:30:06;53.00;;;26.67;;
53521;SDS011;39398;48.382;9.802;2023-03-04T17:35:11;60.67;;;23.90;;
53521;SDS011;39398;48.382;9.802;2023-03-04T17:40:13;59.65;;;25.20;;
53521;SDS011;39398;48.382;9.802;2023-03-04T17:45:16;66.40;;;28.40;;
53521;SDS011;39398;48.382;9.802;2023-03-04T17:50:18;69.25;;;26.65;;
53521;SDS011;39398;48.382;9.802;2023-03-04T17:55:19;56.80;;;25.42;;
53521;SDS011;39398;48.382;9.802;2023-03-04T18:00:23;74.75;;;37.20;;
53521;SDS011;39398;48.382;9.802;2023-03-04T18:05:24;49.15;;;20.40;;
53521;SDS011;39398;48.382;9.802;2023-03-04T18:10:26;74.57;;;33.30;;
53521;SDS011;39398;48.382;9.802;2023-03-04T18:15:29;63.75;;;28.98;;
53521;SDS011;39398;48.382;9.802;2023-03-04T18:20:30;59.58;;;26.90;;
53521;SDS011;39398;48.382;9.802;2023-03-04T18:25:32;73.18;;;29.88;;
53521;SDS011;39398;48.382;9.802;2023-03-04T18:30:35;60.15;;;27.85;;
53521;SDS011;39398;48.382;9.802;2023-03-04T18:35:38;69.47;;;32.97;;
53521;SDS011;39398;48.382;9.802;2023-03-04T18:40:39;60.53;;;26.52;;
53521;SDS011;39398;48.382;9.802;2023-03-04T18:45:43;62.50;;;28.73;;
53521;SDS011;39398;48.382;9.802;2023-03-04T18:50:45;68.60;;;30.98;;
53521;SDS011;39398;48.382;9.802;2023-03-04T18:55:46;77.40;;;34.38;;
53521;SDS011;39398;48.382;9.802;2023-03-04T19:00:49;79.53;;;39.67;;
53521;SDS011;39398;48.382;9.802;2023-03-04T19:05:51;73.38;;;29.55;;
53521;SDS011;39398;48.382;9.802;2023-03-04T19:10:55;63.47;;;23.45;;
53521;SDS011;39398;48.382;9.802;2023-03-04T19:15:58;59.30;;;24.15;;
53521;SDS011;39398;48.382;9.802;2023-03-04T19:21:00;62.10;;;27.33;;
53521;SDS011;39398;48.382;9.802;2023-03-04T19:26:05;61.33;;;24.67;;
53521;SDS011;39398;48.382;9.802;2023-03-04T19:31:08;52.78;;;21.55;;
53521;SDS011;39398;48.382;9.802;2023-03-04T19:36:11;73.25;;;33.45;;
53521;SDS011;39398;48.382;9.802;2023-03-04T19:41:13;51.58;;;20.23;;
53521;SDS011;39398;48.382;9.802;2023-03-04T19:46:18;67.72;;;24.30;;
53521;SDS011;39398;48.382;9.802;2023-03-04T19:51:20;71.18;;;25.33;;
53521;SDS011;39398;48.382;9.802;2023-03-04T19:56:23;59.15;;;22.98;;
53521;SDS011;39398;48.382;9.802;2023-03-04T20:01:26;64.80;;;24.05;;
53521;SDS011;39398;48.382;9.802;2023-03-04T20:06:29;50.40;;;21.83;;
53521;SDS011;39398;48.382;9.802;2023-03-04T20:11:31;63.03;;;23.67;;
53521;SDS011;39398;48.382;9.802;2023-03-04T20:16:34;56.58;;;23.63;;
53521;SDS011;39398;48.382;9.802;2023-03-04T20:21:36;54.30;;;23.20;;
53521;SDS011;39398;48.382;9.802;2023-03-04T20:26:37;63.00;;;22.73;;
53521;SDS011;39398;48.382;9.802;2023-03-04T20:31:40;59.30;;;25.48;;
53521;SDS011;39398;48.382;9.802;2023-03-04T20:36:42;54.50;;;25.50;;
53521;SDS011;39398;48.382;9.802;2023-03-04T20:41:44;60.63;;;25.88;;
53521;SDS011;39398;48.382;9.802;2023-03-04T20:46:47;61.67;;;24.73;;
53521;SDS011;39398;48.382;9.802;2023-03-04T20:51:48;55.00;;;24.58;;
53521;SDS011;39398;48.382;9.802;2023-03-04T20:56:50;57.25;;;24.95;;
53521;SDS011;39398;48.382;9.802;2023-03-04T21:01:53;56.13;;;23.95;;
53521;SDS011;39398;48.382;9.802;2023-03-04T21:06:55;61.00;;;25.23;;
53521;SDS011;39398;48.382;9.802;2023-03-04T21:11:57;62.55;;;26.08;;
53521;SDS011;39398;48.382;9.802;2023-03-04T21:17:03;56.40;;;26.08;;
53521;SDS011;39398;48.382;9.802;2023-03-04T21:22:05;60.58;;;25.98;;
53521;SDS011;39398;48.382;9.802;2023-03-04T21:27:06;58.55;;;27.10;;
53521;SDS011;39398;48.382;9.802;2023-03-04T21:32:11;56.22;;;25.50;;
53521;SDS011;39398;48.382;9.802;2023-03-04T21:37:25;57.22;;;26.65;;
53521;SDS011;39398;48.382;9.802;2023-03-04T21:42:26;58.40;;;26.50;;
53521;SDS011;39398;48.382;9.802;2023-03-04T21:47:29;56.75;;;25.50;;
53521;SDS011;39398;48.382;9.802;2023-03-04T21:52:31;55.35;;;25.08;;
53521;SDS011;39398;48.382;9.802;2023-03-04T21:57:32;58.10;;;24.23;;
53521;SDS011;39398;48.382;9.802;2023-03-04T22:02:35;51.38;;;24.85;;
53521;SDS011;39398;48.382;9.802;2023-03-04T22:07:37;64.93;;;31.10;;
53521;SDS011;39398;48.382;9.802;2023-03-04T22:12:38;62.78;;;26.65;;
53521;SDS011;39398;48.382;9.802;2023-03-04T22:17:41;56.65;;;26.17;;
53521;SDS011;39398;48.382;9.802;2023-03-04T22:22:43;60.72;;;26.00;;
53521;SDS011;39398;48.382;9.802;2023-03-04T22:27:44;53.40;;;25.13;;
53521;SDS011;39398;48.382;9.802;2023-03-04T22:32:47;58.15;;;27.10;;
53521;SDS011;39398;48.382;9.802;2023-03-04T22:37:49;53.38;;;24.30;;
53521;SDS011;39398;48.382;9.802;2023-03-04T22:42:51;51.05;;;24.63;;
53521;SDS011;39398;48.382;9.802;2023-03-04T22:47:54;50.15;;;23.20;;
53521;SDS011;39398;48.382;9.802;2023-03-04T22:52:55;52.47;;;24.05;;
53521;SDS011;39398;48.382;9.802;2023-03-04T22:57:57;66.35;;;29.77;;
53521;SDS011;39398;48.382;9.802;2023-03-04T23:03:00;65.80;;;29.55;;
53521;SDS011;39398;48.382;9.802;2023-03-04T23:08:01;75.90;;;35.17;;
53521;SDS011;39398;48.382;9.802;2023-03-04T23:13:03;54.33;;;24.50;;
53521;SDS011;39398;48.382;9.802;2023-03-04T23:18:05;52.80;;;23.65;;
53521;SDS011;39398;48.382;9.802;2023-03-04T23:23:07;55.13;;;24.92;;
53521;SDS011;39398;48.382;9.802;2023-03-04T23:28:09;52.20;;;23.38;;
53521;SDS011;39398;48.382;9.802;2023-03-04T23:33:11;52.65;;;23.73;;
53521;SDS011;39398;48.382;9.802;2023-03-04T23:38:13;49.00;;;22.75;;
53521;SDS011;39398;48.382;9.802;2023-03-04T23:43:15;48.10;;;21.65;;
53521;SDS011;39398;48.382;9.802;2023-03-04T23:48:17;47.97;;;22.13;;
53521;SDS011;39398;48.382;9.802;2023-03-04T23:53:19;42.83;;;19.33;;
53521;SDS011;39398;48.382;9.802;2023-03-04T23:58:21;43.17;;;17.38;;
